Time;durP1;ratioP1;P1;durP2;ratioP2;P2;SDS_P1;SDS_P2;PMS_P1;PMS_P2;Temp;Humidity;BMP_temperature;BMP_pressure;BME280_temperature;BME280_humidity;BME280_pressure;Samples;Min_cycle;Max_cycle;Signal;HPM_P1;HPM_P2
2023/05/22 00:01:36;;;;;;;10.10;4.17;;;;;;;13.20;65.24;100679.19;4261016;28;20825;-66
2023/05/22 00:04:03;;;;;;;7.97;4.07;;;;;;;13.21;65.09;100677.34;4276459;28;20298;-69
2023/05/22 00:06:30;;;;;;;10.17;4.17;;;;;;;13.06;66.00;100677.03;4273244;28;20278;-68
2023/05/22 00:08:56;;;;;;;8.47;3.97;;;;;;;13.03;66.58;100680.94;4267078;28;20343;-69
2023/05/22 00:11:23;;;;;;;7.30;4.17;;;;;;;12.96;67.20;100679.84;4266227;28;20237;-68
2023/05/22 00:13:50;;;;;;;9.90;4.10;;;;;;;12.85;67.56;100670.09;4274461;28;21294;-69
2023/05/22 00:16:16;;;;;;;8.00;4.50;;;;;;;12.75;68.21;100672.03;4259920;28;20233;-69
2023/05/22 00:18:43;;;;;;;8.90;4.07;;;;;;;12.74;66.33;100678.47;4264855;28;20232;-68
2023/05/22 00:21:10;;;;;;;13.07;4.67;;;;;;;12.79;65.76;100666.13;4272330;27;20593;-67
2023/05/22 00:23:37;;;;;;;8.50;4.60;;;;;;;12.89;65.05;100668.75;4271257;28;20287;-68
2023/05/22 00:26:03;;;;;;;10.03;3.93;;;;;;;12.93;65.27;100666.56;4271373;28;20237;-68
2023/05/22 00:28:30;;;;;;;9.80;4.17;;;;;;;12.76;66.34;100668.31;4265641;28;25528;-69
2023/05/22 00:30:56;;;;;;;7.67;4.37;;;;;;;12.77;66.44;100667.31;4255586;28;20222;-69
2023/05/22 00:33:23;;;;;;;7.30;4.00;;;;;;;12.73;65.94;100665.88;4261963;28;20289;-68
2023/05/22 00:35:50;;;;;;;14.70;4.57;;;;;;;12.64;66.90;100663.13;4269710;28;22242;-68
2023/05/22 00:38:31;;;;;;;8.17;4.10;;;;;;;12.62;66.21;100665.13;4262471;28;21736;-69
2023/05/22 00:40:59;;;;;;;7.53;4.27;;;;;;;12.66;65.53;100658.38;4247683;28;20634;-69
2023/05/22 00:43:26;;;;;;;7.60;3.47;;;;;;;12.64;65.34;100664.97;4267731;28;20339;-67
2023/05/22 00:45:55;;;;;;;9.43;4.20;;;;;;;12.61;65.78;100668.00;4261434;28;20293;-68
2023/05/22 00:48:22;;;;;;;7.50;4.00;;;;;;;12.58;66.06;100665.59;4259281;28;25576;-70
2023/05/22 00:50:50;;;;;;;10.03;4.63;;;;;;;12.57;66.27;100666.59;4248981;28;20813;-68
2023/05/22 00:53:19;;;;;;;11.30;4.30;;;;;;;12.54;66.63;100665.06;4262976;28;20303;-69
2023/05/22 00:55:46;;;;;;;6.90;3.80;;;;;;;12.53;66.69;100660.63;4250424;28;20229;-69
2023/05/22 00:58:16;;;;;;;9.87;4.17;;;;;;;12.46;66.78;100659.53;4265253;28;20236;-70
2023/05/22 01:00:43;;;;;;;7.90;3.57;;;;;;;12.44;66.43;100656.97;4269368;28;20249;-68
2023/05/22 01:03:09;;;;;;;9.90;3.70;;;;;;;12.42;65.98;100658.16;4246624;28;20704;-69
2023/05/22 01:05:37;;;;;;;7.77;3.40;;;;;;;12.42;65.74;100672.56;4261215;28;20243;-69
2023/05/22 01:08:05;;;;;;;6.20;3.67;;;;;;;12.50;64.59;100666.38;4257274;28;20309;-67
2023/05/22 01:10:33;;;;;;;8.50;3.53;;;;;;;12.50;64.86;100669.94;4258569;28;20242;-69
2023/05/22 01:13:30;;;;;;;8.50;3.57;;;;;;;12.48;64.68;100658.38;4275603;28;21015;-68
2023/05/22 01:16:11;;;;;;;6.83;3.27;;;;;;;12.48;64.79;100662.97;4258294;28;20353;-67
2023/05/22 01:19:14;;;;;;;5.33;2.90;;;;;;;12.51;64.45;100668.06;4270884;28;20240;-67
2023/05/22 01:22:22;;;;;;;6.57;3.87;;;;;;;12.49;64.63;100665.50;4275240;28;20654;-68
2023/05/22 01:24:52;;;;;;;7.90;3.90;;;;;;;12.44;64.92;100669.69;4270685;28;20295;-68
2023/05/22 01:27:24;;;;;;;6.90;3.37;;;;;;;12.35;65.16;100669.59;4253187;28;24739;-69
2023/05/22 01:29:57;;;;;;;7.00;3.77;;;;;;;12.41;64.97;100657.28;4255761;28;20246;-68
2023/05/22 01:32:24;;;;;;;10.27;3.30;;;;;;;12.44;64.90;100659.69;4271046;28;20302;-70
2023/05/22 01:34:55;;;;;;;9.73;3.87;;;;;;;12.40;64.76;100660.16;4274296;28;20408;-67
2023/05/22 01:37:22;;;;;;;8.67;3.10;;;;;;;12.34;64.18;100664.34;4256871;28;20720;-67
2023/05/22 01:39:50;;;;;;;9.67;3.30;;;;;;;12.32;64.47;100652.75;4257427;28;22571;-69
2023/05/22 01:42:17;;;;;;;8.10;3.30;;;;;;;12.35;64.63;100660.63;4258943;28;20283;-68
2023/05/22 01:44:44;;;;;;;6.70;3.23;;;;;;;12.36;64.11;100662.31;4279155;28;21110;-67
2023/05/22 01:47:10;;;;;;;8.07;3.70;;;;;;;12.39;64.07;100655.72;4262875;28;20225;-68
2023/05/22 01:49:37;;;;;;;7.27;3.23;;;;;;;12.37;64.61;100664.03;4270933;28;20240;-67
2023/05/22 01:52:08;;;;;;;7.93;3.37;;;;;;;12.44;64.63;100664.25;4264306;28;20238;-69
2023/05/22 01:54:42;;;;;;;6.40;3.20;;;;;;;12.41;65.09;100659.16;4263387;28;21274;-70
2023/05/22 01:57:20;;;;;;;6.80;3.67;;;;;;;12.34;66.03;100658.91;4250235;28;20471;-68
2023/05/22 01:59:49;;;;;;;9.03;3.60;;;;;;;12.28;66.13;100662.25;4257179;28;20241;-68
2023/05/22 02:02:18;;;;;;;10.20;4.03;;;;;;;12.23;66.24;100659.97;4264666;28;21936;-68
2023/05/22 02:05:10;;;;;;;8.93;3.77;;;;;;;12.22;66.23;100662.84;4257103;28;20314;-70
2023/05/22 02:07:38;;;;;;;6.10;3.73;;;;;;;12.20;65.96;100658.44;4246607;28;20225;-68
2023/05/22 02:10:07;;;;;;;8.10;3.67;;;;;;;12.13;66.00;100662.75;4257996;28;20657;-69
2023/05/22 02:12:34;;;;;;;7.53;3.33;;;;;;;12.10;65.25;100660.34;4254431;28;20233;-68
2023/05/22 02:15:01;;;;;;;7.50;3.87;;;;;;;12.12;64.72;100660.22;4265109;28;20239;-70
2023/05/22 02:17:27;;;;;;;8.03;3.50;;;;;;;12.13;64.84;100660.03;4271923;28;21135;-68
2023/05/22 02:19:54;;;;;;;7.37;3.50;;;;;;;12.18;64.12;100665.84;4278152;28;22113;-68
2023/05/22 02:22:20;;;;;;;8.93;3.13;;;;;;;12.14;64.97;100658.16;4272919;28;20236;-69
2023/05/22 02:24:48;;;;;;;7.30;3.23;;;;;;;12.16;64.25;100659.72;4262403;28;20230;-69
2023/05/22 02:27:16;;;;;;;6.20;3.70;;;;;;;12.08;66.21;100661.50;4271160;28;24152;-69
2023/05/22 02:29:42;;;;;;;9.73;3.83;;;;;;;12.05;65.96;100673.50;4263560;28;20234;-68
2023/05/22 02:32:09;;;;;;;9.73;3.50;;;;;;;12.00;66.07;100662.28;4281878;28;20230;-69
2023/05/22 02:34:36;;;;;;;7.03;3.87;;;;;;;12.01;66.27;100658.53;4274040;28;20233;-67
2023/05/22 02:37:03;;;;;;;8.97;3.57;;;;;;;12.00;66.11;100648.72;4263025;28;20299;-69
2023/05/22 02:39:30;;;;;;;7.10;3.47;;;;;;;12.01;66.28;100647.69;4273694;28;23336;-68
2023/05/22 02:41:56;;;;;;;7.87;3.67;;;;;;;12.03;66.91;100648.38;4270717;28;20232;-70
2023/05/22 02:44:23;;;;;;;6.70;3.80;;;;;;;12.01;66.76;100653.09;4263949;28;20299;-68
2023/05/22 02:46:50;;;;;;;8.43;3.53;;;;;;;11.93;67.29;100653.84;4286096;28;20237;-71
2023/05/22 02:49:17;;;;;;;7.40;3.30;;;;;;;11.89;67.72;100649.72;4272717;28;22587;-68
2023/05/22 02:51:46;;;;;;;7.43;4.03;;;;;;;11.89;67.93;100641.59;4264097;28;20267;-68
2023/05/22 02:54:14;;;;;;;17.07;4.20;;;;;;;11.85;68.49;100640.16;4241308;28;21442;-68
2023/05/22 02:56:42;;;;;;;6.13;3.70;;;;;;;11.87;68.61;100643.59;4253866;28;21369;-67
2023/05/22 02:59:08;;;;;;;10.43;3.80;;;;;;;11.86;68.81;100637.31;4267429;28;20281;-70
2023/05/22 03:01:37;;;;;;;8.50;3.83;;;;;;;11.84;69.32;100641.16;4262943;28;20600;-70
2023/05/22 03:04:05;;;;;;;5.47;3.80;;;;;;;11.84;69.34;100638.47;4268465;28;23561;-69
2023/05/22 03:06:33;;;;;;;7.83;4.00;;;;;;;11.72;70.29;100641.38;4266708;28;20305;-70
2023/05/22 03:09:00;;;;;;;10.57;4.20;;;;;;;11.84;70.00;100643.88;4268751;28;23107;-67
2023/05/22 03:11:26;;;;;;;6.20;3.83;;;;;;;11.86;69.81;100639.16;4248894;28;20650;-70
2023/05/22 03:13:53;;;;;;;9.43;4.00;;;;;;;11.83;70.06;100636.75;4265768;28;21060;-68
2023/05/22 03:16:19;;;;;;;7.23;4.00;;;;;;;11.85;70.19;100626.59;4275341;28;20234;-69
2023/05/22 03:18:46;;;;;;;6.20;3.90;;;;;;;11.88;69.81;100637.16;4272572;28;20306;-68
2023/05/22 03:21:13;;;;;;;10.93;4.33;;;;;;;12.04;68.72;100636.53;4270440;28;20373;-68
2023/05/22 03:23:39;;;;;;;9.50;4.07;;;;;;;12.09;68.57;100630.66;4254565;28;23535;-67
2023/05/22 03:26:06;;;;;;;14.50;4.17;;;;;;;12.14;67.68;100631.03;4264903;28;22976;-69
2023/05/22 03:28:33;;;;;;;8.67;3.97;;;;;;;12.27;67.71;100638.81;4257059;28;20284;-70
2023/05/22 03:30:59;;;;;;;11.00;4.30;;;;;;;12.40;67.63;100646.59;4278231;28;22130;-68
2023/05/22 03:33:26;;;;;;;8.97;3.77;;;;;;;12.45;66.98;100638.81;4254988;28;20306;-69
2023/05/22 03:35:53;;;;;;;9.97;4.20;;;;;;;12.41;67.28;100635.56;4266738;28;20388;-70
2023/05/22 03:38:19;;;;;;;10.07;4.23;;;;;;;12.36;66.72;100641.44;4273154;28;22088;-71
2023/05/22 03:40:46;;;;;;;6.70;4.03;;;;;;;12.41;67.00;100634.72;4278565;28;22082;-68
2023/05/22 03:43:12;;;;;;;9.83;4.83;;;;;;;12.41;67.22;100637.44;4278859;28;20581;-69
2023/05/22 03:45:39;;;;;;;7.47;4.27;;;;;;;12.51;67.27;100639.06;4276718;28;21641;-70
2023/05/22 03:48:06;;;;;;;11.80;4.33;;;;;;;12.56;68.44;100641.31;4280001;28;20307;-71
2023/05/22 03:50:32;;;;;;;10.03;4.60;;;;;;;12.62;68.26;100640.69;4273075;28;20229;-68
2023/05/22 03:52:59;;;;;;;8.93;4.90;;;;;;;12.67;67.50;100640.22;4271811;28;20280;-68
2023/05/22 03:55:26;;;;;;;11.03;5.00;;;;;;;12.75;68.20;100645.72;4279578;28;20313;-67
2023/05/22 03:57:53;;;;;;;11.30;4.80;;;;;;;12.75;68.79;100647.56;4273865;28;21761;-68
2023/05/22 04:00:20;;;;;;;11.03;5.27;;;;;;;12.90;68.25;100643.28;4263078;28;20567;-69
2023/05/22 04:02:46;;;;;;;11.07;5.93;;;;;;;13.04;68.29;100641.88;4265165;28;20311;-69
2023/05/22 04:05:13;;;;;;;9.90;5.20;;;;;;;13.10;67.96;100643.97;4256429;28;20249;-67
2023/05/22 04:07:40;;;;;;;11.30;5.53;;;;;;;13.25;67.83;100643.38;4273862;28;20233;-66
2023/05/22 04:10:07;;;;;;;14.37;6.97;;;;;;;13.19;68.73;100644.84;4267407;28;20963;-68
2023/05/22 04:12:33;;;;;;;9.67;5.27;;;;;;;13.24;68.76;100638.94;4278633;28;20234;-68
2023/05/22 04:15:00;;;;;;;14.50;5.93;;;;;;;13.38;68.40;100638.38;4277029;28;20310;-68
2023/05/22 04:17:33;;;;;;;15.93;5.93;;;;;;;13.41;68.50;100635.34;4281058;28;20225;-70
2023/05/22 04:20:00;;;;;;;14.47;5.90;;;;;;;13.52;68.41;100633.38;4248133;28;20256;-68
2023/05/22 04:22:29;;;;;;;13.43;6.43;;;;;;;13.63;68.13;100630.38;4245906;28;20865;-68
2023/05/22 04:24:56;;;;;;;15.83;6.17;;;;;;;13.81;67.28;100629.44;4267241;28;20231;-71
2023/05/22 04:27:23;;;;;;;11.50;6.10;;;;;;;14.04;65.65;100627.81;4259612;28;21419;-68
2023/05/22 04:29:50;;;;;;;14.13;6.90;;;;;;;14.10;65.70;100627.16;4264560;28;22385;-67
2023/05/22 04:32:17;;;;;;;12.10;5.90;;;;;;;14.31;64.92;100614.09;4268787;28;21221;-69
2023/05/22 04:34:46;;;;;;;16.00;6.50;;;;;;;14.48;64.03;100621.25;4265612;28;20316;-68
2023/05/22 04:37:13;;;;;;;16.20;6.50;;;;;;;14.55;63.89;100618.72;4269936;28;20233;-69
2023/05/22 04:39:40;;;;;;;19.50;6.60;;;;;;;14.53;63.80;100615.28;4259382;28;21112;-68
2023/05/22 04:42:08;;;;;;;18.23;6.47;;;;;;;14.62;63.92;100621.59;4271241;28;20448;-70
2023/05/22 04:44:34;;;;;;;18.33;6.37;;;;;;;14.82;62.90;100614.84;4253848;28;20237;-71
2023/05/22 04:47:03;;;;;;;13.07;6.53;;;;;;;15.02;62.28;100622.66;4270951;27;23442;-70
2023/05/22 04:49:33;;;;;;;12.90;6.10;;;;;;;15.09;61.91;100623.66;4255047;28;20226;-75
2023/05/22 04:52:03;;;;;;;11.57;6.37;;;;;;;15.13;61.15;100622.31;4250907;28;21830;-74
2023/05/22 04:54:30;;;;;;;17.80;7.03;;;;;;;15.18;60.90;100619.06;4285839;28;21253;-72
2023/05/22 04:56:57;;;;;;;17.77;6.47;;;;;;;15.31;60.90;100618.50;4288684;28;20236;-71
2023/05/22 04:59:25;;;;;;;14.10;6.73;;;;;;;15.37;60.70;100624.13;4255625;28;20229;-72
2023/05/22 05:01:51;;;;;;;17.23;6.47;;;;;;;15.57;59.38;100618.25;4266020;28;22786;-71
2023/05/22 05:04:18;;;;;;;15.57;5.83;;;;;;;15.77;58.62;100618.69;4264802;28;20659;-72
2023/05/22 05:06:45;;;;;;;14.90;5.80;;;;;;;15.92;57.74;100621.56;4266108;28;20278;-71
2023/05/22 05:09:12;;;;;;;14.93;5.90;;;;;;;16.06;57.20;100619.09;4265251;28;20242;-70
2023/05/22 05:11:38;;;;;;;15.33;5.77;;;;;;;16.25;56.70;100620.53;4272334;28;21603;-72
2023/05/22 05:14:05;;;;;;;15.73;5.47;;;;;;;16.34;55.71;100626.78;4280605;28;20241;-73
2023/05/22 05:16:31;;;;;;;11.73;5.63;;;;;;;16.56;55.25;100630.56;4278171;28;20648;-70
2023/05/22 05:18:58;;;;;;;12.83;5.17;;;;;;;16.83;55.07;100622.81;4278056;28;22971;-73
2023/05/22 05:21:26;;;;;;;13.50;5.43;;;;;;;17.07;54.58;100630.84;4278069;28;21340;-73
2023/05/22 05:23:53;;;;;;;18.10;5.87;;;;;;;17.20;53.37;100623.88;4279527;28;20234;-69
2023/05/22 05:26:20;;;;;;;11.77;4.80;;;;;;;17.54;52.67;100633.44;4278431;28;20628;-70
2023/05/22 05:28:48;;;;;;;13.97;6.00;;;;;;;17.45;52.53;100635.41;4272625;28;24792;-72
2023/05/22 05:31:14;;;;;;;17.50;5.50;;;;;;;17.97;51.41;100633.63;4256164;28;20235;-73
2023/05/22 05:33:41;;;;;;;14.87;5.40;;;;;;;18.39;49.50;100628.44;4259505;28;21158;-72
2023/05/22 05:36:08;;;;;;;14.47;5.17;;;;;;;18.98;48.93;100632.81;4266828;28;25808;-72
2023/05/22 05:38:35;;;;;;;12.13;4.90;;;;;;;19.40;46.50;100627.44;4289351;28;20247;-70
2023/05/22 05:41:02;;;;;;;8.60;4.20;;;;;;;20.01;46.65;100622.28;4278377;28;21179;-73
2023/05/22 05:43:29;;;;;;;11.77;4.47;;;;;;;20.81;44.52;100629.88;4284265;28;20830;-74
2023/05/22 05:45:56;;;;;;;10.30;4.43;;;;;;;20.85;42.14;100625.66;4278947;28;20797;-59
2023/05/22 05:48:22;;;;;;;15.80;4.87;;;;;;;21.94;39.88;100626.13;4253189;28;20231;-66
2023/05/22 05:50:49;;;;;;;10.83;4.90;;;;;;;21.80;40.53;100627.25;4261136;28;20272;-64
2023/05/22 05:53:18;;;;;;;12.30;4.87;;;;;;;22.06;40.66;100631.81;4287165;28;21711;-67
2023/05/22 05:55:45;;;;;;;10.77;4.70;;;;;;;22.48;40.01;100631.41;4271454;28;21780;-69
2023/05/22 05:58:11;;;;;;;12.27;4.10;;;;;;;21.73;40.10;100632.78;4279228;28;20728;-66
2023/05/22 06:00:38;;;;;;;10.47;3.97;;;;;;;22.58;38.67;100631.75;4282495;28;20242;-67
2023/05/22 06:03:05;;;;;;;7.73;4.07;;;;;;;23.19;36.98;100626.63;4273874;28;22056;-67
2023/05/22 06:05:32;;;;;;;8.07;3.70;;;;;;;23.43;37.90;100621.31;4280665;28;22982;-63
2023/05/22 06:07:59;;;;;;;14.33;4.47;;;;;;;23.99;36.92;100622.16;4272189;28;20244;-65
2023/05/22 06:10:25;;;;;;;14.50;4.60;;;;;;;24.52;35.54;100617.84;4292218;28;20286;-65
2023/05/22 06:12:52;;;;;;;9.40;4.33;;;;;;;24.84;34.03;100613.97;4286419;28;20237;-64
2023/05/22 06:15:18;;;;;;;8.53;4.07;;;;;;;25.70;33.12;100616.25;4269370;28;20233;-69
2023/05/22 06:17:45;;;;;;;11.83;4.53;;;;;;;27.68;29.53;100619.53;4257175;28;20226;-68
2023/05/22 06:20:13;;;;;;;7.13;3.60;;;;;;;28.31;27.23;100616.41;4274391;28;20235;-66
2023/05/22 06:22:39;;;;;;;11.32;4.30;;;;;;;28.62;26.66;100611.16;4270966;28;20938;-64
2023/05/22 06:25:06;;;;;;;8.53;2.80;;;;;;;29.63;24.87;100613.31;4268167;28;20808;-65
2023/05/22 06:27:33;;;;;;;5.85;2.80;;;;;;;30.43;23.04;100615.88;4261299;28;20521;-67
2023/05/22 06:30:00;;;;;;;4.88;2.90;;;;;;;29.54;24.28;100613.00;4265109;28;21662;-66
2023/05/22 06:32:30;;;;;;;7.05;3.00;;;;;;;30.27;22.83;100616.94;4267393;28;20236;-65
2023/05/22 06:34:57;;;;;;;13.40;3.08;;;;;;;30.16;22.97;100607.72;4275042;28;20953;-67
2023/05/22 06:37:23;;;;;;;8.05;2.63;;;;;;;30.11;23.21;100607.69;4274762;28;20284;-65
2023/05/22 06:39:50;;;;;;;12.73;2.80;;;;;;;31.43;20.98;100602.44;4271974;28;25365;-66
2023/05/22 06:42:16;;;;;;;5.70;2.63;;;;;;;31.01;21.15;100609.22;4276695;28;20233;-64
2023/05/22 06:44:43;;;;;;;12.17;2.70;;;;;;;30.75;21.96;100606.41;4261651;28;20237;-65
2023/05/22 06:47:10;;;;;;;6.72;3.08;;;;;;;29.97;22.89;100605.41;4264197;28;20291;-66
2023/05/22 06:49:36;;;;;;;10.50;2.90;;;;;;;29.34;23.68;100606.22;4267779;28;20283;-65
2023/05/22 06:52:03;;;;;;;15.18;2.60;;;;;;;28.65;24.48;100605.06;4285037;28;26133;-66
2023/05/22 06:54:31;;;;;;;8.57;2.92;;;;;;;29.25;24.05;100600.25;4275607;28;20423;-63
2023/05/22 06:56:58;;;;;;;15.98;3.00;;;;;;;29.37;24.06;100600.06;4265611;28;20241;-65
2023/05/22 06:59:24;;;;;;;4.25;2.40;;;;;;;30.39;23.13;100602.72;4280201;28;20229;-64
2023/05/22 07:01:51;;;;;;;13.07;3.08;;;;;;;30.24;24.16;100604.38;4290121;28;20238;-65
2023/05/22 07:04:18;;;;;;;7.47;2.58;;;;;;;30.95;22.70;100602.78;4277474;28;20329;-66
2023/05/22 07:06:45;;;;;;;9.68;3.75;;;;;;;30.05;24.00;100595.69;4245056;28;20309;-67
2023/05/22 07:09:12;;;;;;;7.22;3.15;;;;;;;29.67;24.63;100592.97;4276254;27;20247;-66
2023/05/22 07:11:41;;;;;;;17.35;3.92;;;;;;;29.83;23.32;100595.84;4290895;28;20631;-66
2023/05/22 07:14:08;;;;;;;9.02;2.45;;;;;;;31.02;22.22;100598.84;4279940;28;20312;-67
2023/05/22 07:16:35;;;;;;;10.68;2.95;;;;;;;32.51;19.96;100594.69;4261456;28;20860;-65
2023/05/22 07:19:02;;;;;;;6.45;2.97;;;;;;;33.30;19.22;100588.13;4265146;28;23004;-66
2023/05/22 07:21:34;;;;;;;6.57;2.75;;;;;;;34.01;18.93;100596.88;4272254;28;21827;-64
2023/05/22 07:24:07;;;;;;;10.55;3.00;;;;;;;32.34;20.98;100587.53;4278973;28;20582;-67
2023/05/22 07:26:35;;;;;;;7.63;3.47;;;;;;;32.57;20.15;100595.50;4264713;28;20232;-65
2023/05/22 07:29:02;;;;;;;10.00;3.13;;;;;;;31.01;21.33;100600.00;4298842;28;20250;-67
2023/05/22 07:31:33;;;;;;;11.02;3.10;;;;;;;29.37;23.93;100588.91;4288867;28;20226;-68
2023/05/22 07:33:59;;;;;;;11.10;2.88;;;;;;;29.44;24.06;100587.84;4280493;28;20865;-67
2023/05/22 07:36:26;;;;;;;8.85;2.90;;;;;;;28.24;26.77;100582.38;4300019;28;20229;-66
2023/05/22 07:38:53;;;;;;;10.63;3.00;;;;;;;27.61;26.47;100583.56;4282544;28;20265;-69
2023/05/22 07:41:21;;;;;;;7.88;2.97;;;;;;;27.78;27.04;100585.44;4284474;28;20359;-66
2023/05/22 07:43:48;;;;;;;9.73;2.90;;;;;;;28.14;25.75;100583.94;4265754;28;22543;-67
2023/05/22 07:46:15;;;;;;;8.37;2.70;;;;;;;26.55;26.22;100580.50;4275077;28;20225;-68
2023/05/22 07:48:42;;;;;;;13.00;3.10;;;;;;;26.41;27.95;100576.34;4277715;28;20229;-67
2023/05/22 07:51:09;;;;;;;12.23;3.00;;;;;;;26.76;26.65;100568.91;4289807;28;20531;-66
2023/05/22 07:53:35;;;;;;;8.60;2.23;;;;;;;26.13;26.85;100577.22;4256880;28;20646;-70
2023/05/22 07:56:02;;;;;;;10.60;2.97;;;;;;;26.06;27.55;100575.41;4289038;28;20233;-69
2023/05/22 07:58:29;;;;;;;8.67;2.80;;;;;;;26.56;28.79;100570.25;4274645;28;20660;-66
2023/05/22 08:00:55;;;;;;;6.27;2.27;;;;;;;26.40;26.78;100572.75;4275857;28;20327;-71
2023/05/22 08:03:22;;;;;;;9.83;2.53;;;;;;;25.75;27.62;100568.41;4259114;28;25838;-66
2023/05/22 08:05:49;;;;;;;6.57;2.43;;;;;;;25.61;27.81;100574.22;4275438;28;21687;-67
2023/05/22 08:08:16;;;;;;;5.43;2.30;;;;;;;25.65;27.33;100579.25;4269630;28;20665;-67
2023/05/22 08:10:43;;;;;;;9.13;2.30;;;;;;;25.85;26.92;100576.94;4277860;28;20382;-67
2023/05/22 08:13:28;;;;;;;5.43;2.37;;;;;;;25.86;27.87;100577.78;4256086;28;20751;-67
2023/05/22 08:15:55;;;;;;;6.07;2.10;;;;;;;26.40;26.84;100578.28;4287850;28;20335;-70
2023/05/22 08:18:27;;;;;;;8.80;2.00;;;;;;;26.62;25.37;100579.50;4262168;28;20244;-69
2023/05/22 08:20:55;;;;;;;4.67;1.93;;;;;;;26.33;25.77;100574.84;4281534;28;20233;-65
2023/05/22 08:23:21;;;;;;;6.47;2.17;;;;;;;26.35;25.72;100571.81;4253040;28;20403;-69
2023/05/22 08:25:49;;;;;;;6.78;2.00;;;;;;;26.18;26.44;100567.06;4260951;28;20438;-70
2023/05/22 08:28:15;;;;;;;8.83;2.30;;;;;;;25.55;27.02;100571.56;4272898;28;20233;-70
2023/05/22 08:30:42;;;;;;;7.47;2.17;;;;;;;25.57;27.40;100570.25;4256948;28;21915;-68
2023/05/22 08:33:09;;;;;;;7.53;2.10;;;;;;;26.31;26.38;100563.13;4259101;28;21128;-67
2023/05/22 08:35:35;;;;;;;7.37;2.10;;;;;;;25.39;27.27;100565.69;4276146;28;20307;-67
2023/05/22 08:38:02;;;;;;;4.87;1.97;;;;;;;25.74;26.91;100570.34;4263850;28;21430;-78
2023/05/22 08:40:37;;;;;;;4.57;2.00;;;;;;;25.57;26.80;100570.25;4269799;28;20246;-65
2023/05/22 08:43:05;;;;;;;5.80;1.97;;;;;;;25.72;27.03;100571.69;4295321;28;20285;-67
2023/05/22 08:45:33;;;;;;;3.93;2.00;;;;;;;25.99;26.93;100571.09;4268864;28;20225;-67
2023/05/22 08:48:04;;;;;;;7.40;1.87;;;;;;;25.28;27.17;100566.53;4274746;27;20373;-69
2023/05/22 08:50:33;;;;;;;7.40;1.80;;;;;;;25.36;27.32;100565.31;4277068;28;20282;-67
2023/05/22 08:53:03;;;;;;;5.87;1.90;;;;;;;25.15;27.97;100570.41;4271305;28;21270;-66
2023/05/22 08:55:29;;;;;;;11.93;3.27;;;;;;;25.44;27.68;100565.84;4276070;28;20237;-68
2023/05/22 08:57:56;;;;;;;3.93;2.00;;;;;;;25.80;27.30;100562.94;4273948;28;20903;-66
2023/05/22 09:00:23;;;;;;;7.20;2.17;;;;;;;25.70;26.00;100555.28;4253888;28;22318;-67
2023/05/22 09:02:51;;;;;;;4.83;2.30;;;;;;;25.86;26.09;100548.13;4246538;28;20293;-70
2023/05/22 09:05:17;;;;;;;4.27;1.70;;;;;;;25.58;25.07;100560.00;4252202;28;21128;-66
2023/05/22 09:07:44;;;;;;;8.65;2.35;;;;;;;26.01;25.22;100557.84;4270095;28;20238;-68
2023/05/22 09:10:11;;;;;;;5.73;2.00;;;;;;;24.98;26.87;100554.50;4262168;28;21755;-69
2023/05/22 09:12:37;;;;;;;6.95;2.17;;;;;;;24.30;28.58;100556.66;4269067;28;20257;-68
2023/05/22 09:15:09;;;;;;;4.40;2.13;;;;;;;24.04;30.39;100544.91;4260323;28;20354;-67
2023/05/22 09:17:39;;;;;;;5.27;2.33;;;;;;;23.93;30.05;100544.84;4283884;28;23506;-69
2023/05/22 09:20:09;;;;;;;7.53;2.70;;;;;;;23.94;32.00;100539.09;4281693;28;20313;-68
2023/05/22 09:22:39;;;;;;;7.00;2.20;;;;;;;24.49;30.10;100538.03;4275038;28;20228;-68
2023/05/22 09:25:06;;;;;;;4.93;2.10;;;;;;;24.19;30.47;100541.69;4275923;28;20258;-66
2023/05/22 09:27:33;;;;;;;7.67;2.77;;;;;;;24.61;30.33;100540.84;4274778;28;20235;-66
2023/05/22 09:30:00;;;;;;;9.00;2.67;;;;;;;24.67;30.26;100531.59;4267455;28;20399;-66
2023/05/22 09:32:30;;;;;;;7.33;2.20;;;;;;;24.07;30.29;100529.78;4254361;28;24738;-70
2023/05/22 09:35:03;;;;;;;7.27;3.00;;;;;;;24.28;30.65;100530.31;4266949;28;20241;-68
2023/05/22 09:37:37;;;;;;;4.43;2.13;;;;;;;24.51;30.25;100530.34;4263300;28;20302;-68
2023/05/22 09:40:05;;;;;;;6.67;3.20;;;;;;;23.72;31.33;100530.41;4262007;28;25087;-67
2023/05/22 09:42:33;;;;;;;4.33;2.73;;;;;;;23.93;31.80;100533.78;4250595;28;20685;-65
2023/05/22 09:45:07;;;;;;;8.27;2.53;;;;;;;24.40;29.76;100528.41;4254203;28;20230;-67
2023/05/22 09:47:34;;;;;;;7.87;2.30;;;;;;;23.68;31.27;100531.97;4294460;27;20705;-65
2023/05/22 09:50:05;;;;;;;4.60;2.23;;;;;;;23.17;32.21;100528.47;4262472;28;20258;-67
2023/05/22 09:52:35;;;;;;;5.27;2.03;;;;;;;23.44;31.73;100533.75;4261967;28;20241;-63
2023/05/22 09:55:07;;;;;;;6.67;2.17;;;;;;;23.81;31.02;100522.66;4255905;28;20248;-69
2023/05/22 09:57:44;;;;;;;12.30;1.93;;;;;;;24.11;31.92;100522.66;4274886;28;20252;-65
2023/05/22 10:00:13;;;;;;;7.33;2.33;;;;;;;23.85;31.17;100526.63;4263017;28;20246;-69
2023/05/22 10:02:45;;;;;;;6.80;2.23;;;;;;;24.10;31.63;100525.69;4260804;28;20306;-64
2023/05/22 10:05:22;;;;;;;6.97;2.23;;;;;;;23.78;31.16;100523.13;4266136;28;20225;-64
2023/05/22 10:07:50;;;;;;;5.05;2.10;;;;;;;24.03;31.01;100523.88;4275663;28;20269;-64
2023/05/22 10:10:20;;;;;;;5.80;2.10;;;;;;;23.92;29.67;100521.84;4248984;28;22808;-67
2023/05/22 10:12:55;;;;;;;4.97;2.10;;;;;;;23.99;29.48;100522.63;4266818;28;20238;-63
2023/05/22 10:15:22;;;;;;;6.93;2.20;;;;;;;23.79;30.46;100517.38;4229444;28;20238;-60
2023/05/22 10:17:49;;;;;;;9.23;2.37;;;;;;;24.39;31.17;100523.09;4247449;28;21744;-64
2023/05/22 10:20:16;;;;;;;6.70;2.10;;;;;;;23.60;32.14;100518.47;4260215;28;20237;-64
2023/05/22 10:22:43;;;;;;;8.00;2.30;;;;;;;23.58;31.71;100521.47;4256188;28;20362;-64
2023/05/22 10:25:10;;;;;;;7.97;2.73;;;;;;;23.40;32.71;100514.88;4269812;27;20636;-68
2023/05/22 10:27:37;;;;;;;7.27;2.57;;;;;;;23.35;30.72;100516.63;4277000;28;20235;-67
2023/05/22 10:30:20;;;;;;;5.00;2.00;;;;;;;23.35;30.92;100520.25;4285445;28;20305;-65
2023/05/22 10:32:55;;;;;;;5.80;2.00;;;;;;;23.38;30.73;100505.97;4264124;28;20374;-64
2023/05/22 10:35:34;;;;;;;8.40;2.10;;;;;;;23.27;31.07;100512.28;4261660;28;22716;-65
2023/05/22 10:38:38;;;;;;;6.80;2.33;;;;;;;23.62;30.58;100508.84;4277044;28;21768;-66
2023/05/22 10:41:05;;;;;;;7.10;2.47;;;;;;;23.78;29.85;100512.06;4275067;28;20282;-63
2023/05/22 10:43:31;;;;;;;4.57;2.27;;;;;;;23.55;30.13;100513.63;4258986;28;20240;-65
2023/05/22 10:46:02;;;;;;;5.10;2.40;;;;;;;23.54;30.47;100503.66;4285524;28;20232;-66
2023/05/22 10:48:40;;;;;;;4.63;2.10;;;;;;;23.55;29.78;100508.09;4278106;28;20635;-65
2023/05/22 10:51:07;;;;;;;5.27;2.70;;;;;;;23.28;31.70;100502.91;4262850;28;20642;-63
2023/05/22 10:53:35;;;;;;;8.57;2.10;;;;;;;23.22;30.90;100507.44;4283337;28;20503;-65
2023/05/22 10:56:10;;;;;;;4.13;2.10;;;;;;;23.24;31.68;100504.44;4267628;28;20238;-66
2023/05/22 10:58:37;;;;;;;4.23;2.17;;;;;;;23.33;30.65;100492.00;4270959;28;20230;-64
2023/05/22 11:01:15;;;;;;;7.73;2.17;;;;;;;23.57;31.57;100495.72;4267580;28;20280;-65
2023/05/22 11:04:12;;;;;;;4.67;2.03;;;;;;;24.14;29.48;100488.16;4296912;28;21325;-66
2023/05/22 11:06:57;;;;;;;4.70;2.03;;;;;;;24.57;29.26;100495.34;4296161;28;21204;-68
2023/05/22 11:09:27;;;;;;;3.90;1.90;;;;;;;24.16;29.77;100484.13;4295748;28;25484;-68
2023/05/22 11:12:23;;;;;;;5.30;2.47;;;;;;;24.50;29.33;100487.16;4329761;28;20846;-70
2023/05/22 11:15:10;;;;;;;5.27;2.60;;;;;;;24.63;31.08;100483.31;4286029;28;20253;-68
2023/05/22 11:17:49;;;;;;;4.50;2.03;;;;;;;24.52;29.06;100481.38;4279294;28;20241;-70
2023/05/22 11:20:21;;;;;;;5.37;2.00;;;;;;;23.97;29.63;100477.81;4313140;28;20237;-69
2023/05/22 11:22:59;;;;;;;3.77;2.27;;;;;;;24.03;29.51;100479.63;4264834;28;21970;-68
2023/05/22 11:25:26;;;;;;;5.67;2.33;;;;;;;24.14;30.04;100469.66;4293007;28;21993;-66
2023/05/22 11:27:54;;;;;;;8.23;2.40;;;;;;;23.98;30.31;100462.03;4259380;28;20523;-69
2023/05/22 11:30:25;;;;;;;5.23;2.10;;;;;;;23.62;29.73;100469.34;4286234;27;23404;-66